Time;durP1;ratioP1;P1;durP2;ratioP2;P2;SDS_P1;SDS_P2;PMS_P1;PMS_P2;Temp;Humidity;BMP_temperature;BMP_pressure;BME280_temperature;BME280_humidity;BME280_pressure;Samples;Min_cycle;Max_cycle;Signal;HPM_P1;HPM_P2
2022/01/13 00:02:20;;;;;;;43.47;20.90;;;-0.30;91.20;;;;;;5100711;28;20175;-72
2022/01/13 00:04:47;;;;;;;46.28;24.73;;;-0.20;91.30;;;;;;5095780;28;20536;-71
2022/01/13 00:07:13;;;;;;;48.30;22.45;;;-0.20;91.30;;;;;;5089641;28;20257;-72
2022/01/13 00:09:39;;;;;;;48.67;23.05;;;0.00;91.10;;;;;;5091516;28;20241;-72
2022/01/13 00:12:07;;;;;;;51.07;23.97;;;0.00;90.60;;;;;;5090776;28;20585;-73
2022/01/13 00:17:11;;;;;;;57.25;25.20;;;0.10;90.10;;;;;;5089873;28;20622;-72
2022/01/13 00:24:46;;;;;;;52.75;24.35;;;0.20;88.40;;;;;;5088818;28;20218;-70
2022/01/13 00:27:13;;;;;;;42.58;22.00;;;0.10;88.10;;;;;;5092586;28;20269;-72
2022/01/13 00:29:42;;;;;;;49.75;21.70;;;0.10;88.30;;;;;;5094289;28;20221;-72
2022/01/13 00:32:10;;;;;;;49.00;23.42;;;0.10;88.60;;;;;;5094640;28;20183;-71
2022/01/13 00:34:36;;;;;;;43.53;21.38;;;0.00;88.90;;;;;;5092979;28;20205;-73
2022/01/13 00:37:02;;;;;;;55.20;22.73;;;0.00;89.00;;;;;;5090620;28;20176;-73
2022/01/13 00:39:28;;;;;;;56.72;23.73;;;0.00;89.20;;;;;;5086424;28;20271;-74
2022/01/13 00:41:54;;;;;;;50.37;22.37;;;0.00;89.60;;;;;;5090889;28;20259;-72
2022/01/13 00:44:21;;;;;;;46.73;22.10;;;0.00;89.90;;;;;;5089623;28;20175;-71
2022/01/13 00:46:56;;;;;;;51.00;22.52;;;0.00;90.00;;;;;;5089596;28;20470;-71
2022/01/13 00:49:22;;;;;;;50.47;23.00;;;0.00;89.60;;;;;;5085698;28;20289;-72
2022/01/13 00:51:48;;;;;;;52.55;23.75;;;0.00;89.60;;;;;;5089968;28;20194;-73
2022/01/13 00:54:14;;;;;;;50.60;22.43;;;0.00;89.50;;;;;;5093374;28;20175;-71
2022/01/13 00:56:41;;;;;;;49.60;22.70;;;0.00;89.50;;;;;;5094191;28;20176;-72
2022/01/13 00:59:12;;;;;;;46.53;23.75;;;0.00;89.60;;;;;;5092843;28;20179;-73
2022/01/13 01:01:41;;;;;;;39.42;22.08;;;0.10;90.00;;;;;;5093748;28;20194;-71
2022/01/13 01:04:08;;;;;;;53.72;24.65;;;0.10;89.90;;;;;;5089350;28;20194;-72
2022/01/13 01:06:35;;;;;;;55.72;25.13;;;0.20;89.30;;;;;;5093457;28;20183;-70
2022/01/13 01:09:03;;;;;;;58.10;25.00;;;0.20;88.70;;;;;;5093243;28;20210;-71
2022/01/13 01:11:28;;;;;;;57.83;25.88;;;0.20;88.70;;;;;;5096488;28;20175;-71
2022/01/13 01:13:56;;;;;;;53.70;25.80;;;0.10;88.60;;;;;;5097514;28;20244;-72
2022/01/13 01:16:25;;;;;;;52.78;24.23;;;0.10;89.00;;;;;;5095170;28;20199;-71
2022/01/13 01:19:02;;;;;;;58.08;24.48;;;0.20;89.30;;;;;;5093142;28;20557;-71
2022/01/13 01:24:14;;;;;;;55.80;25.30;;;0.30;89.50;;;;;;5093384;28;20215;-71
2022/01/13 01:26:48;;;;;;;52.05;24.23;;;0.40;88.70;;;;;;5091802;28;20672;-72
2022/01/13 01:29:40;;;;;;;49.90;24.00;;;0.50;88.00;;;;;;5093385;28;20215;-72
2022/01/13 01:32:10;;;;;;;53.40;25.30;;;0.50;87.70;;;;;;5091725;28;20180;-73
2022/01/13 01:37:16;;;;;;;64.70;26.25;;;0.40;87.10;;;;;;5093197;28;20241;-72
2022/01/13 01:39:44;;;;;;;55.67;24.40;;;0.30;87.40;;;;;;5092849;28;20179;-71
2022/01/13 01:42:10;;;;;;;49.08;24.30;;;0.40;88.00;;;;;;5091710;28;20262;-71
2022/01/13 01:44:41;;;;;;;50.90;24.23;;;0.40;88.00;;;;;;5093423;28;20337;-71
2022/01/13 01:47:10;;;;;;;50.72;24.80;;;0.30;88.10;;;;;;5094422;28;20445;-72
2022/01/13 01:49:41;;;;;;;48.92;23.42;;;0.30;88.40;;;;;;5094533;28;20609;-73
2022/01/13 01:52:09;;;;;;;49.15;23.85;;;0.20;88.90;;;;;;5095240;28;20614;-70
2022/01/13 01:54:35;;;;;;;50.80;24.60;;;0.30;89.00;;;;;;5094640;28;20202;-71
2022/01/13 01:57:01;;;;;;;48.73;22.20;;;0.30;89.20;;;;;;5095657;28;20184;-70
2022/01/13 01:59:30;;;;;;;48.10;22.75;;;0.30;89.20;;;;;;5095388;28;20213;-72
2022/01/13 02:01:58;;;;;;;45.92;22.63;;;0.30;89.30;;;;;;5091853;28;20279;-72
2022/01/13 02:04:26;;;;;;;58.03;24.88;;;0.30;89.50;;;;;;5090366;28;20561;-72
2022/01/13 02:06:54;;;;;;;44.83;22.35;;;0.40;89.50;;;;;;5094575;28;20171;-72
2022/01/13 02:09:21;;;;;;;42.70;23.30;;;0.50;89.30;;;;;;5094207;28;20270;-73
2022/01/13 02:11:52;;;;;;;42.75;22.42;;;0.50;89.20;;;;;;5094320;28;20183;-71
2022/01/13 02:17:13;;;;;;;49.63;23.98;;;0.60;88.90;;;;;;5071443;28;20261;-71
2022/01/13 02:19:42;;;;;;;47.80;24.00;;;0.60;89.00;;;;;;5093364;28;20191;-71
2022/01/13 02:22:08;;;;;;;45.40;22.73;;;0.70;88.70;;;;;;5093334;28;20457;-72
2022/01/13 02:24:34;;;;;;;47.75;23.85;;;0.80;88.00;;;;;;5092932;28;20264;-72
2022/01/13 02:27:01;;;;;;;50.58;22.08;;;0.80;88.00;;;;;;5093828;28;20490;-72
2022/01/13 02:29:27;;;;;;;46.65;24.45;;;0.80;87.80;;;;;;5092029;28;20751;-71
2022/01/13 02:31:53;;;;;;;50.03;23.20;;;0.80;88.00;;;;;;5092071;28;20274;-72
2022/01/13 02:34:19;;;;;;;45.78;24.40;;;0.80;88.30;;;;;;5092482;28;20555;-73
2022/01/13 02:36:48;;;;;;;53.50;23.10;;;0.90;87.80;;;;;;5091936;28;20356;-74
2022/01/13 02:39:14;;;;;;;41.38;22.02;;;0.90;87.60;;;;;;5089459;28;20175;-74
2022/01/13 02:41:40;;;;;;;47.30;22.73;;;0.90;87.60;;;;;;5090437;28;20190;-73
2022/01/13 02:44:15;;;;;;;45.13;22.60;;;0.90;87.70;;;;;;5091554;28;20566;-73
2022/01/13 02:49:12;;;;;;;46.87;23.20;;;0.90;87.80;;;;;;5093061;28;20206;-71
2022/01/13 02:51:41;;;;;;;51.08;23.33;;;0.90;87.60;;;;;;5092244;28;20245;-72
2022/01/13 02:54:08;;;;;;;46.38;24.13;;;0.90;87.60;;;;;;5091952;28;20512;-72
2022/01/13 02:56:36;;;;;;;56.88;27.67;;;0.80;87.30;;;;;;5091523;28;20191;-72
2022/01/13 02:59:02;;;;;;;49.17;24.08;;;0.70;87.70;;;;;;5091850;28;20203;-72
2022/01/13 03:01:27;;;;;;;50.80;25.13;;;0.60;87.80;;;;;;5092320;28;20218;-74
2022/01/13 03:03:53;;;;;;;57.73;25.80;;;0.50;88.30;;;;;;5090275;28;20437;-73
2022/01/13 03:06:25;;;;;;;53.10;25.20;;;0.50;88.60;;;;;;5091198;28;20203;-73
2022/01/13 03:08:53;;;;;;;46.60;25.10;;;0.50;88.90;;;;;;5090348;28;20472;-73
2022/01/13 03:11:19;;;;;;;54.75;25.98;;;0.40;89.30;;;;;;5091559;28;20171;-72
2022/01/13 03:13:45;;;;;;;45.85;23.10;;;0.40;89.50;;;;;;5091450;28;20213;-73
2022/01/13 03:16:13;;;;;;;57.90;24.83;;;0.40;89.70;;;;;;5091310;28;20191;-73
2022/01/13 03:18:39;;;;;;;58.65;25.52;;;0.40;89.70;;;;;;5090606;28;20183;-73
2022/01/13 03:21:06;;;;;;;48.75;22.65;;;0.40;89.70;;;;;;5091335;28;20677;-73
2022/01/13 03:23:34;;;;;;;56.10;23.85;;;0.40;89.70;;;;;;5090518;28;20191;-73
2022/01/13 03:26:00;;;;;;;50.95;24.70;;;0.50;89.70;;;;;;5090574;28;20221;-73
2022/01/13 03:28:30;;;;;;;57.70;23.90;;;0.40;89.30;;;;;;5090937;28;20980;-74
2022/01/13 03:31:02;;;;;;;50.20;23.63;;;0.20;89.30;;;;;;5090912;28;20495;-72
2022/01/13 03:33:28;;;;;;;57.80;25.90;;;0.20;89.90;;;;;;5090404;28;20212;-71
2022/01/13 03:35:55;;;;;;;49.05;24.27;;;0.10;90.20;;;;;;5090261;28;20207;-73
2022/01/13 03:38:21;;;;;;;54.17;26.70;;;0.10;90.40;;;;;;5090347;28;20187;-74
2022/01/13 03:40:47;;;;;;;57.05;26.40;;;0.10;90.50;;;;;;5085979;28;20233;-73
2022/01/13 03:43:16;;;;;;;52.93;25.30;;;0.10;90.70;;;;;;5089540;28;20179;-72
2022/01/13 03:45:42;;;;;;;47.95;23.20;;;0.10;90.90;;;;;;5090524;28;20214;-73
2022/01/13 03:48:09;;;;;;;52.58;24.45;;;0.10;90.90;;;;;;5090468;28;20225;-73
2022/01/13 03:50:35;;;;;;;48.70;24.33;;;0.10;91.00;;;;;;5091536;28;20201;-72
2022/01/13 03:53:01;;;;;;;49.97;25.42;;;0.30;91.10;;;;;;5091022;28;20532;-73
2022/01/13 03:56:13;;;;;;;52.27;25.07;;;0.30;90.80;;;;;;5091234;28;20197;-73
2022/01/13 03:59:35;;;;;;;47.90;23.63;;;0.30;90.60;;;;;;5057431;28;20508;-72
2022/01/13 04:02:02;;;;;;;43.15;22.70;;;0.50;90.30;;;;;;5013832;28;20192;-73
2022/01/13 04:04:35;;;;;;;55.17;24.75;;;0.50;89.70;;;;;;5084654;28;20219;-72
2022/01/13 04:07:10;;;;;;;44.65;23.83;;;0.50;89.70;;;;;;5091777;28;20274;-73
2022/01/13 04:09:55;;;;;;;49.70;24.27;;;0.50;89.70;;;;;;5091309;28;20230;-73
2022/01/13 04:12:24;;;;;;;49.33;23.83;;;0.60;89.30;;;;;;5091368;28;20175;-73
2022/01/13 04:14:58;;;;;;;43.25;23.00;;;0.60;89.20;;;;;;5089258;28;20199;-73
2022/01/13 04:17:25;;;;;;;44.63;23.13;;;0.60;89.20;;;;;;5091816;28;20171;-73
2022/01/13 04:19:51;;;;;;;50.45;24.42;;;0.60;89.00;;;;;;5093308;28;20729;-74
2022/01/13 04:22:18;;;;;;;43.38;22.10;;;0.70;89.00;;;;;;5090036;28;20179;-73
2022/01/13 04:24:50;;;;;;;44.55;22.83;;;0.70;88.70;;;;;;5088374;28;20211;-74
2022/01/13 04:27:41;;;;;;;54.35;25.52;;;0.80;88.60;;;;;;5088745;28;20229;-73
2022/01/13 04:32:42;;;;;;;46.22;22.90;;;0.70;88.90;;;;;;5094469;28;20178;-72
2022/01/13 04:35:08;;;;;;;49.85;24.50;;;0.70;88.90;;;;;;5094186;28;20310;-74
2022/01/13 04:37:34;;;;;;;44.60;23.27;;;0.80;88.60;;;;;;5094937;28;20545;-73
2022/01/13 04:40:00;;;;;;;52.13;24.57;;;0.80;88.40;;;;;;5089910;28;20183;-72
2022/01/13 04:42:31;;;;;;;50.13;23.97;;;0.80;88.40;;;;;;5093644;28;20191;-73
2022/01/13 04:44:57;;;;;;;49.78;25.48;;;0.90;88.40;;;;;;5085210;28;20543;-73
2022/01/13 04:47:22;;;;;;;53.53;22.70;;;0.80;88.40;;;;;;5093841;28;20262;-72
2022/01/13 04:49:48;;;;;;;42.80;23.80;;;0.90;88.60;;;;;;5093455;28;20245;-72
2022/01/13 04:52:14;;;;;;;49.37;24.10;;;0.90;88.40;;;;;;5092560;28;20220;-71
2022/01/13 04:54:39;;;;;;;50.20;24.60;;;0.70;88.30;;;;;;5094784;28;20286;-73
2022/01/13 04:57:14;;;;;;;50.17;23.77;;;0.60;88.60;;;;;;5096648;28;20179;-73
2022/01/13 04:59:40;;;;;;;50.63;24.33;;;0.50;89.20;;;;;;5097424;28;20212;-71
2022/01/13 05:02:06;;;;;;;52.80;24.10;;;0.40;89.50;;;;;;5097472;28;20654;-73
2022/01/13 05:04:31;;;;;;;51.63;24.03;;;0.40;89.70;;;;;;5093975;28;20919;-72
2022/01/13 05:06:57;;;;;;;57.03;25.10;;;0.50;89.70;;;;;;5093499;28;20232;-74
2022/01/13 05:09:23;;;;;;;50.97;24.27;;;0.50;89.90;;;;;;5092965;28;20568;-72
2022/01/13 05:11:48;;;;;;;47.00;24.40;;;0.60;89.70;;;;;;5094128;28;20186;-73
2022/01/13 05:14:14;;;;;;;54.50;25.03;;;0.50;89.70;;;;;;5095437;28;20653;-73
2022/01/13 05:19:20;;;;;;;45.88;22.85;;;0.50;89.90;;;;;;5092835;28;20631;-74
2022/01/13 05:24:25;;;;;;;48.38;23.20;;;0.30;89.70;;;;;;5097953;28;20225;-71
2022/01/13 05:26:51;;;;;;;48.28;24.58;;;0.20;90.00;;;;;;5106389;28;20175;-71
2022/01/13 05:29:20;;;;;;;49.10;22.38;;;0.10;90.30;;;;;;5100827;28;20218;-72
2022/01/13 05:31:48;;;;;;;50.80;23.83;;;0.10;90.60;;;;;;5091989;28;20217;-71
2022/01/13 05:34:14;;;;;;;47.25;23.90;;;0.00;90.60;;;;;;5092594;28;20179;-73
2022/01/13 05:36:40;;;;;;;46.80;23.70;;;0.00;90.70;;;;;;5092560;28;20261;-73
2022/01/13 05:39:06;;;;;;;49.30;24.40;;;0.00;90.90;;;;;;5091411;28;20559;-72
2022/01/13 05:41:33;;;;;;;50.93;25.73;;;0.00;90.90;;;;;;5090202;28;20559;-72
2022/01/13 05:43:59;;;;;;;41.92;21.85;;;0.00;90.90;;;;;;5092502;28;20569;-72
2022/01/13 05:46:25;;;;;;;43.20;22.37;;;0.00;91.00;;;;;;5091944;28;20211;-71
2022/01/13 05:48:51;;;;;;;44.20;24.17;;;0.00;91.00;;;;;;5092044;28;20555;-72
2022/01/13 05:51:16;;;;;;;54.20;24.87;;;0.10;91.00;;;;;;5095237;28;20525;-73
2022/01/13 05:53:42;;;;;;;49.67;25.37;;;0.10;91.00;;;;;;5093859;28;20705;-73
2022/01/13 05:56:09;;;;;;;56.83;24.37;;;0.20;91.00;;;;;;5092395;28;20199;-72
2022/01/13 05:58:35;;;;;;;48.42;23.85;;;0.20;90.90;;;;;;5091881;28;20183;-72
2022/01/13 06:01:01;;;;;;;46.37;22.67;;;0.20;90.80;;;;;;5093834;28;20182;-72
2022/01/13 06:03:26;;;;;;;55.03;24.70;;;0.30;90.70;;;;;;5088989;28;20521;-73
2022/01/13 06:05:52;;;;;;;49.13;23.03;;;0.20;90.40;;;;;;5093856;28;20429;-72
2022/01/13 06:08:18;;;;;;;52.97;25.00;;;0.20;90.40;;;;;;5092734;28;20211;-73
2022/01/13 06:10:46;;;;;;;48.77;23.73;;;0.20;90.40;;;;;;5092583;28;20221;-73
2022/01/13 06:13:13;;;;;;;56.92;25.88;;;0.20;90.50;;;;;;5090657;28;20203;-71
2022/01/13 06:15:39;;;;;;;50.25;22.42;;;0.30;90.80;;;;;;5091971;28;20252;-73
2022/01/13 06:18:10;;;;;;;51.33;23.27;;;0.30;90.80;;;;;;5092155;28;20270;-75
2022/01/13 06:20:36;;;;;;;54.20;24.40;;;0.40;90.60;;;;;;5092448;28;20432;-73
2022/01/13 06:23:04;;;;;;;56.03;23.55;;;0.40;90.40;;;;;;5091833;28;20183;-73
2022/01/13 06:25:30;;;;;;;49.70;23.55;;;0.50;90.10;;;;;;5095292;28;20199;-72
2022/01/13 06:27:56;;;;;;;47.93;22.97;;;0.50;90.00;;;;;;5097695;28;20202;-73
2022/01/13 06:30:21;;;;;;;51.00;24.93;;;0.50;89.90;;;;;;5094058;28;20642;-72
2022/01/13 06:32:47;;;;;;;45.07;22.40;;;0.40;89.70;;;;;;5091762;28;20190;-73
2022/01/13 06:35:13;;;;;;;48.43;24.00;;;0.40;89.90;;;;;;5093172;28;20199;-72
2022/01/13 06:37:41;;;;;;;47.03;23.65;;;0.50;90.10;;;;;;5092784;28;20701;-73
2022/01/13 06:40:08;;;;;;;46.28;23.00;;;0.50;90.10;;;;;;5089548;28;20559;-71
2022/01/13 06:42:34;;;;;;;47.95;22.40;;;0.60;89.90;;;;;;5096725;28;20187;-73
2022/01/13 06:45:00;;;;;;;56.30;26.00;;;0.60;89.70;;;;;;5098487;28;20245;-71
2022/01/13 06:47:25;;;;;;;48.57;22.13;;;0.70;89.60;;;;;;5099461;28;20186;-73
2022/01/13 06:49:51;;;;;;;46.43;22.90;;;0.70;89.50;;;;;;5098438;28;20199;-72
2022/01/13 06:52:17;;;;;;;44.77;22.47;;;0.80;89.30;;;;;;5098353;28;20641;-73
2022/01/13 06:54:43;;;;;;;53.13;23.83;;;0.80;89.20;;;;;;5091719;28;20638;-71
2022/01/13 06:57:09;;;;;;;49.42;23.35;;;0.80;89.20;;;;;;5091128;28;20183;-73
2022/01/13 06:59:35;;;;;;;49.40;23.58;;;0.80;89.30;;;;;;5090852;28;20630;-72
2022/01/13 07:02:01;;;;;;;51.90;24.97;;;0.90;89.30;;;;;;5091369;28;20198;-74
2022/01/13 07:04:28;;;;;;;58.85;24.60;;;0.90;89.30;;;;;;5087465;28;20265;-75
2022/01/13 07:06:54;;;;;;;40.10;21.52;;;0.90;89.20;;;;;;5089429;28;20175;-74
2022/01/13 07:09:21;;;;;;;41.30;20.35;;;1.00;89.00;;;;;;5091025;28;20206;-73
2022/01/13 07:11:47;;;;;;;40.38;20.48;;;1.10;88.90;;;;;;5090543;28;20320;-71
2022/01/13 07:14:14;;;;;;;43.97;21.40;;;1.00;88.90;;;;;;5091617;28;20690;-72
2022/01/13 07:16:41;;;;;;;45.17;21.52;;;0.90;89.20;;;;;;5091599;28;20277;-71
2022/01/13 07:19:10;;;;;;;46.42;23.27;;;0.90;89.50;;;;;;5092778;28;20274;-71
2022/01/13 07:21:36;;;;;;;45.47;24.00;;;0.90;89.70;;;;;;5091536;28;20180;-71
2022/01/13 07:24:02;;;;;;;44.80;22.17;;;1.00;89.50;;;;;;5091689;28;20189;-71
2022/01/13 07:26:28;;;;;;;49.67;22.90;;;1.00;89.20;;;;;;5091529;28;20203;-72
2022/01/13 07:28:54;;;;;;;46.83;22.77;;;1.00;88.60;;;;;;5092323;28;20465;-71
2022/01/13 07:31:20;;;;;;;45.10;23.27;;;1.00;88.40;;;;;;5097690;28;20186;-73
2022/01/13 07:33:46;;;;;;;51.70;23.47;;;1.00;88.40;;;;;;5096039;28;20218;-71
2022/01/13 07:36:12;;;;;;;48.90;23.08;;;0.90;88.70;;;;;;5094583;28;20226;-73
2022/01/13 07:38:38;;;;;;;45.53;22.67;;;1.00;89.00;;;;;;5093279;28;20226;-71
2022/01/13 07:41:04;;;;;;;44.77;23.00;;;1.10;89.00;;;;;;5087944;28;20197;-73
2022/01/13 07:43:31;;;;;;;49.97;22.77;;;1.10;88.90;;;;;;5090467;28;20412;-74
2022/01/13 07:45:57;;;;;;;43.42;22.30;;;1.10;88.70;;;;;;5090596;28;20680;-72
2022/01/13 07:48:24;;;;;;;48.00;22.98;;;1.20;88.70;;;;;;5091083;28;20211;-73
2022/01/13 07:50:51;;;;;;;41.92;21.70;;;1.20;88.60;;;;;;5092177;28;20175;-73
2022/01/13 07:53:16;;;;;;;47.92;24.23;;;1.20;88.40;;;;;;5094010;28;20262;-74
2022/01/13 07:55:42;;;;;;;48.43;22.63;;;1.20;88.30;;;;;;5094130;28;20223;-74
2022/01/13 07:58:09;;;;;;;44.60;23.73;;;1.20;87.80;;;;;;5090851;28;20598;-72
2022/01/13 08:00:35;;;;;;;42.72;22.77;;;1.10;87.70;;;;;;5089403;28;20490;-72
2022/01/13 08:03:01;;;;;;;43.10;23.13;;;1.00;87.60;;;;;;5089498;28;20187;-74
2022/01/13 08:05:26;;;;;;;45.43;23.17;;;1.00;87.70;;;;;;5086618;28;20207;-75
2022/01/13 08:07:52;;;;;;;47.23;24.10;;;0.90;87.80;;;;;;5089728;28;20172;-74
2022/01/13 08:10:18;;;;;;;51.17;24.93;;;0.90;88.00;;;;;;5089572;28;20179;-74
2022/01/13 08:12:44;;;;;;;49.00;24.03;;;0.90;88.30;;;;;;5090212;28;20451;-74
2022/01/13 08:15:13;;;;;;;44.63;22.63;;;0.90;88.40;;;;;;5089823;28;20195;-76
2022/01/13 08:20:29;;;;;;;41.33;21.45;;;0.90;88.70;;;;;;5090269;28;20189;-74
2022/01/13 08:22:55;;;;;;;43.28;21.70;;;0.90;88.70;;;;;;5089372;28;20179;-73
2022/01/13 08:25:22;;;;;;;38.33;19.40;;;0.90;88.60;;;;;;5089995;28;20884;-73
2022/01/13 08:27:48;;;;;;;39.47;19.00;;;0.90;88.60;;;;;;5089984;28;20859;-72
2022/01/13 08:30:14;;;;;;;39.03;17.67;;;0.90;88.90;;;;;;5089714;28;20202;-73
2022/01/13 08:32:40;;;;;;;40.67;19.87;;;1.00;88.70;;;;;;5089256;28;20260;-73
2022/01/13 08:35:07;;;;;;;34.45;18.42;;;1.10;88.60;;;;;;5089236;28;20437;-72
2022/01/13 08:37:33;;;;;;;40.20;17.88;;;1.10;88.30;;;;;;5089758;28;20180;-74
2022/01/13 08:40:04;;;;;;;38.55;18.75;;;1.10;88.60;;;;;;5089567;28;20183;-73
2022/01/13 08:42:32;;;;;;;41.22;18.13;;;1.00;88.40;;;;;;5089513;28;20185;-75
2022/01/13 08:44:57;;;;;;;29.58;15.93;;;1.00;88.90;;;;;;5089637;28;20210;-75
2022/01/13 08:47:23;;;;;;;35.03;15.23;;;1.00;89.30;;;;;;5089977;28;20552;-75
2022/01/13 08:49:49;;;;;;;34.90;16.83;;;1.00;89.70;;;;;;5089493;28;20206;-74
2022/01/13 08:52:15;;;;;;;30.90;14.97;;;1.00;90.00;;;;;;5089681;28;20180;-74
2022/01/13 08:54:45;;;;;;;32.03;16.07;;;1.00;90.20;;;;;;5089555;28;20275;-74
2022/01/13 08:57:11;;;;;;;34.20;16.90;;;1.00;90.20;;;;;;5090222;28;20175;-72
2022/01/13 08:59:37;;;;;;;33.05;17.75;;;1.00;90.10;;;;;;5089080;28;20819;-75
2022/01/13 09:02:03;;;;;;;35.42;17.70;;;1.00;90.10;;;;;;5090057;28;20254;-73
2022/01/13 09:04:29;;;;;;;38.10;16.87;;;0.90;89.90;;;;;;5085509;28;20179;-72
2022/01/13 09:06:55;;;;;;;45.70;18.80;;;0.90;89.90;;;;;;5089325;28;20425;-73
2022/01/13 09:09:21;;;;;;;40.17;17.40;;;0.70;90.10;;;;;;5087628;28;20207;-75
2022/01/13 09:11:47;;;;;;;35.63;17.53;;;0.80;90.40;;;;;;5089369;28;20248;-74
2022/01/13 09:14:15;;;;;;;32.37;17.10;;;0.80;90.40;;;;;;5091478;28;20179;-74
2022/01/13 09:16:41;;;;;;;34.88;17.42;;;0.80;90.60;;;;;;5091827;28;20212;-74
2022/01/13 09:19:12;;;;;;;41.72;17.27;;;0.80;90.60;;;;;;5092643;28;20308;-73
2022/01/13 09:21:41;;;;;;;37.22;17.17;;;0.90;90.50;;;;;;5091638;28;20332;-74
2022/01/13 09:24:10;;;;;;;41.08;17.13;;;0.90;90.10;;;;;;5092694;28;20187;-74
2022/01/13 09:26:37;;;;;;;28.80;15.32;;;0.80;89.90;;;;;;5091284;28;20611;-73
2022/01/13 09:29:05;;;;;;;36.75;17.15;;;0.80;90.10;;;;;;5092421;28;20207;-75
2022/01/13 09:31:32;;;;;;;36.72;17.38;;;0.90;90.10;;;;;;5075454;28;20319;-74
2022/01/13 09:33:57;;;;;;;34.90;16.52;;;1.00;89.60;;;;;;5092460;28;20197;-74
2022/01/13 09:36:23;;;;;;;35.10;16.90;;;1.00;89.20;;;;;;5092542;28;20195;-74
2022/01/13 09:38:49;;;;;;;36.77;17.20;;;1.00;88.90;;;;;;5092666;28;20187;-72
2022/01/13 09:41:15;;;;;;;35.20;17.40;;;1.10;88.90;;;;;;5090562;28;20175;-73
2022/01/13 09:43:45;;;;;;;45.15;20.10;;;1.20;88.90;;;;;;5092832;28;20187;-74
2022/01/13 09:46:11;;;;;;;43.40;19.85;;;1.30;88.10;;;;;;5092553;28;20227;-74
2022/01/13 09:48:41;;;;;;;41.13;21.05;;;1.30;87.10;;;;;;5092289;28;20214;-74
2022/01/13 09:51:07;;;;;;;38.25;19.10;;;1.40;86.20;;;;;;5092728;28;20171;-73
2022/01/13 09:53:34;;;;;;;35.25;18.13;;;1.40;85.60;;;;;;5091883;28;20185;-73
2022/01/13 09:56:00;;;;;;;37.63;18.25;;;1.50;85.00;;;;;;5091987;28;20199;-74
2022/01/13 09:58:26;;;;;;;36.42;16.90;;;1.40;84.40;;;;;;5090103;28;20187;-75
2022/01/13 10:00:52;;;;;;;42.13;17.73;;;1.50;84.30;;;;;;5092019;28;20266;-74
2022/01/13 10:03:23;;;;;;;42.87;18.00;;;1.60;84.10;;;;;;5090182;28;20198;-73
2022/01/13 10:05:58;;;;;;;36.05;17.92;;;1.70;83.60;;;;;;5091418;28;20748;-73
2022/01/13 10:08:41;;;;;;;34.63;16.40;;;1.70;83.40;;;;;;5092092;28;20290;-75
2022/01/13 10:11:35;;;;;;;34.65;16.55;;;1.60;83.00;;;;;;5092240;28;20178;-73
2022/01/13 10:14:13;;;;;;;34.22;18.08;;;1.60;83.40;;;;;;5084454;28;20171;-74
2022/01/13 10:16:50;;;;;;;36.58;18.02;;;1.60;83.60;;;;;;5091516;28;20187;-75
2022/01/13 10:19:36;;;;;;;42.10;19.38;;;1.50;84.00;;;;;;5092054;28;20179;-73
2022/01/13 10:22:11;;;;;;;36.25;18.02;;;1.60;84.40;;;;;;5092843;28;20620;-74
2022/01/13 10:24:39;;;;;;;34.78;17.75;;;1.70;84.60;;;;;;5103398;28;20198;-73
2022/01/13 10:27:12;;;;;;;31.95;16.00;;;1.70;84.40;;;;;;5100488;28;20192;-72
2022/01/13 10:29:52;;;;;;;28.63;15.95;;;1.80;84.00;;;;;;5093456;28;20260;-75
2022/01/13 10:32:33;;;;;;;33.15;16.63;;;1.80;83.10;;;;;;5093857;28;20182;-75
2022/01/13 10:35:20;;;;;;;34.80;16.25;;;2.00;83.80;;;;;;5086571;28;20202;-76
2022/01/13 10:37:56;;;;;;;38.30;17.67;;;2.40;83.30;;;;;;5091294;28;20186;-74
2022/01/13 10:40:26;;;;;;;33.80;16.50;;;2.90;82.10;;;;;;5092953;28;20531;-75
2022/01/13 10:45:22;;;;;;;33.47;16.40;;;3.90;75.90;;;;;;5092981;28;20543;-75
2022/01/13 10:48:17;;;;;;;28.60;15.27;;;4.20;74.80;;;;;;5094284;28;20448;-75
2022/01/13 10:50:54;;;;;;;31.70;16.40;;;4.50;72.60;;;;;;5090523;28;20425;-74
2022/01/13 10:53:27;;;;;;;26.57;14.13;;;4.50;72.40;;;;;;5091411;28;20448;-74
2022/01/13 10:55:56;;;;;;;27.20;13.93;;;4.50;72.60;;;;;;5090978;28;20478;-75
2022/01/13 10:58:31;;;;;;;27.40;14.80;;;4.60;72.40;;;;;;5091005;28;20546;-73
2022/01/13 11:00:59;;;;;;;29.80;14.83;;;4.70;72.30;;;;;;5083685;28;20595;-75
2022/01/13 11:03:28;;;;;;;27.40;14.60;;;4.80;72.70;;;;;;5087814;28;20433;-75
2022/01/13 11:06:05;;;;;;;26.20;15.00;;;5.00;72.30;;;;;;5087629;28;20426;-75
2022/01/13 11:08:44;;;;;;;31.73;15.03;;;5.20;70.50;;;;;;5091298;28;20488;-73
2022/01/13 11:11:45;;;;;;;30.17;16.30;;;5.50;70.20;;;;;;5090508;28;20417;-74
2022/01/13 11:14:21;;;;;;;27.83;14.53;;;5.60;69.70;;;;;;5091652;28;20432;-75
2022/01/13 11:16:47;;;;;;;32.37;16.07;;;5.60;68.50;;;;;;5092613;28;20424;-74
2022/01/13 11:19:17;;;;;;;27.53;14.60;;;5.00;69.20;;;;;;5091296;28;20433;-75
2022/01/13 11:21:44;;;;;;;25.67;13.77;;;4.70;70.10;;;;;;5089612;28;20506;-74
2022/01/13 11:24:11;;;;;;;31.07;15.00;;;4.20;71.40;;;;;;5090483;28;21108;-74
2022/01/13 11:26:37;;;;;;;31.40;16.20;;;4.00;72.70;;;;;;5089359;28;20441;-73
2022/01/13 11:29:04;;;;;;;28.33;14.27;;;3.80;73.50;;;;;;5091276;28;20469;-75
2022/01/13 11:31:29;;;;;;;30.37;15.13;;;3.50;74.60;;;;;;5091059;28;20409;-75
2022/01/13 11:33:56;;;;;;;26.50;14.57;;;3.40;75.50;;;;;;5090293;28;20440;-75
2022/01/13 11:36:23;;;;;;;24.53;13.00;;;3.40;76.20;;;;;;5090426;28;20610;-75
2022/01/13 11:38:58;;;;;;;27.25;14.20;;;3.40;76.50;;;;;;5090114;28;20413;-74
2022/01/13 11:41:24;;;;;;;29.25;13.93;;;3.30;76.80;;;;;;5090748;28;20223;-74
2022/01/13 11:43:50;;;;;;;31.40;16.13;;;3.30;76.80;;;;;;5090292;28;20178;-73
2022/01/13 11:46:19;;;;;;;34.03;16.67;;;3.30;77.10;;;;;;5090829;28;20543;-74
2022/01/13 11:49:15;;;;;;;30.07;15.93;;;3.30;77.30;;;;;;5094153;28;20453;-74
2022/01/13 11:51:47;;;;;;;45.43;18.83;;;3.30;77.30;;;;;;5092539;28;20444;-75
2022/01/13 11:54:27;;;;;;;33.28;16.63;;;3.30;77.60;;;;;;5090423;28;20409;-74
2022/01/13 11:57:11;;;;;;;36.85;17.90;;;3.30;78.00;;;;;;5088314;28;20186;-74
2022/01/13 11:59:37;;;;;;;36.95;17.52;;;3.10;77.80;;;;;;5089789;28;20183;-73
2022/01/13 12:02:34;;;;;;;36.43;16.77;;;3.10;78.10;;;;;;5088227;28;20225;-75
2022/01/13 12:05:05;;;;;;;32.23;16.87;;;3.10;78.40;;;;;;5081313;28;20502;-77
2022/01/13 12:07:54;;;;;;;36.22;17.90;;;3.10;78.60;;;;;;5089893;28;20963;-73
2022/01/13 12:10:35;;;;;;;37.30;18.08;;;3.20;78.40;;;;;;5090783;28;20654;-74
2022/01/13 12:13:31;;;;;;;29.97;16.83;;;3.10;78.60;;;;;;5089944;28;20208;-73
2022/01/13 12:15:57;;;;;;;35.10;16.57;;;3.20;78.70;;;;;;5083888;28;20460;-75
2022/01/13 12:22:00;;;;;;;29.03;16.10;;;3.40;78.30;;;;;;5048137;28;20821;-74
2022/01/13 12:24:45;;;;;;;34.07;16.70;;;3.40;77.70;;;;;;5026908;28;20821;-75
2022/01/13 12:27:11;;;;;;;30.40;14.50;;;3.50;78.00;;;;;;5046985;28;20419;-73
2022/01/13 12:29:47;;;;;;;35.23;15.53;;;3.60;77.80;;;;;;5046922;28;20478;-75
2022/01/13 12:32:14;;;;;;;29.90;15.93;;;3.60;77.10;;;;;;5039303;28;20188;-76
2022/01/13 12:34:49;;;;;;;33.97;16.40;;;3.70;77.30;;;;;;5040901;28;20597;-74
2022/01/13 12:37:15;;;;;;;26.45;15.00;;;3.70;77.30;;;;;;5046999;28;20947;-73
2022/01/13 12:39:57;;;;;;;26.40;14.27;;;3.70;76.80;;;;;;5043784;28;20185;-76
2022/01/13 12:42:26;;;;;;;28.93;14.60;;;3.80;76.80;;;;;;5043870;28;20423;-74
2022/01/13 12:47:40;;;;;;;33.57;14.57;;;4.00;76.50;;;;;;5051834;28;20413;-72
2022/01/13 12:50:16;;;;;;;39.33;16.30;;;4.20;75.90;;;;;;5046042;28;20991;-74
2022/01/13 12:52:42;;;;;;;32.00;13.60;;;4.40;75.40;;;;;;5036161;28;20476;-74
2022/01/13 12:55:08;;;;;;;28.03;14.07;;;4.60;73.90;;;;;;5051815;28;20845;-74
2022/01/13 12:57:34;;;;;;;28.00;14.00;;;4.70;72.90;;;;;;5075217;28;21331;-75
2022/01/13 13:00:01;;;;;;;30.50;14.50;;;4.80;73.00;;;;;;5094714;28;20424;-75
2022/01/13 13:02:28;;;;;;;34.73;15.10;;;5.00;72.30;;;;;;5097774;28;20559;-72
2022/01/13 13:04:54;;;;;;;25.63;13.57;;;4.80;72.00;;;;;;5092691;28;20520;-74
2022/01/13 13:07:20;;;;;;;29.00;13.80;;;4.80;72.40;;;;;;5097139;28;20444;-74
2022/01/13 13:09:46;;;;;;;26.90;14.20;;;4.80;72.70;;;;;;5095357;28;20215;-72
2022/01/13 13:12:23;;;;;;;27.50;13.93;;;4.90;72.40;;;;;;5093171;28;20428;-74
2022/01/13 13:17:40;;;;;;;25.83;14.17;;;5.00;71.70;;;;;;5090349;28;20423;-74
2022/01/13 13:20:09;;;;;;;30.30;16.53;;;4.90;71.80;;;;;;5088085;28;21002;-73
2022/01/13 13:22:46;;;;;;;30.77;15.27;;;4.90;72.30;;;;;;5092525;28;20440;-73
2022/01/13 13:25:12;;;;;;;25.73;13.40;;;4.90;72.10;;;;;;5092938;28;20958;-75
2022/01/13 13:27:37;;;;;;;30.80;14.00;;;4.90;72.30;;;;;;5093561;28;20429;-74